Wetterdaten: Woche 05.05.14 - 11.05.14 (KW19)
Datum Zeit Temp. A. Feuchte A. Luftdruck Regen Wind Richtung Taupunkt Windchill Windben
05.05.2014 00:00 7,9 C 62 % 1019,2 hPa 0,0 l/m 7,6 km/h N 1,0 C 7,0 C 23,7 km/h
05.05.2014 01:00 7,1 C 65 % 1019,5 hPa 0,0 l/m 3,0 km/h N 0,9 C 7,1 C 13,7 km/h
05.05.2014 02:00 6,5 C 68 % 1019,5 hPa 0,0 l/m 2,6 km/h N 1,0 C 6,5 C 11,3 km/h
05.05.2014 03:00 6,0 C 69 % 1019,5 hPa 0,0 l/m 3,5 km/h N 0,8 C 6,0 C 13,7 km/h
05.05.2014 04:00 5,5 C 71 % 1019,5 hPa 0,0 l/m 2,5 km/h N 0,6 C 5,5 C 9,3 km/h
05.05.2014 05:00 4,9 C 74 % 1019,8 hPa 0,0 l/m 1,1 km/h N 0,6 C 4,9 C 7,3 km/h
05.05.2014 06:00 5,0 C 75 % 1020,3 hPa 0,0 l/m 2,0 km/h N 1,0 C 5,0 C 9,6 km/h
05.05.2014 07:00 6,1 C 72 % 1020,6 hPa 0,0 l/m 5,2 km/h N 1,4 C 6,1 C 17,3 km/h
05.05.2014 08:00 7,3 C 69 % 1020,9 hPa 0,0 l/m 4,9 km/h N 2,0 C 7,3 C 14,5 km/h
05.05.2014 09:00 9,1 C 62 % 1020,8 hPa 0,0 l/m 3,8 km/h N 2,2 C 9,1 C 12,1 km/h
05.05.2014 10:00 10,1 C 58 % 1020,5 hPa 0,0 l/m 3,7 km/h N 2,1 C 10,1 C 11,7 km/h
05.05.2014 11:00 11,6 C 54 % 1019,9 hPa 0,0 l/m 4,4 km/h N 2,7 C 11,6 C 16,1 km/h
05.05.2014 12:00 12,9 C 53 % 1019,4 hPa 0,0 l/m 4,7 km/h N 3,4 C 12,9 C 17,7 km/h
05.05.2014 13:00 13,6 C 50 % 1018,8 hPa 0,0 l/m 4,5 km/h N 3,3 C 13,6 C 14,9 km/h
05.05.2014 14:00 14,4 C 49 % 1018,5 hPa 0,0 l/m 4,3 km/h N 3,6 C 14,4 C 13,7 km/h
05.05.2014 15:00 14,7 C 47 % 1017,9 hPa 0,0 l/m 4,1 km/h N 3,4 C 14,7 C 13,3 km/h
05.05.2014 16:00 14,8 C 46 % 1017,3 hPa 0,0 l/m 3,8 km/h N 3,2 C 14,8 C 10,9 km/h
05.05.2014 17:00 15,1 C 46 % 1017,1 hPa 0,0 l/m 2,5 km/h N 3,5 C 15,1 C 8,4 km/h
05.05.2014 18:00 14,4 C 49 % 1017,3 hPa 0,0 l/m 1,0 km/h N 3,8 C 14,4 C 6,8 km/h
05.05.2014 19:00 13,5 C 53 % 1017,4 hPa 0,0 l/m 0,2 km/h N 4,0 C 13,5 C 3,6 km/h
05.05.2014 20:00 12,6 C 54 % 1017,6 hPa 0,0 l/m 0,0 km/h N 3,5 C 12,6 C 0,4 km/h
05.05.2014 21:00 10,4 C 64 % 1018,1 hPa 0,0 l/m 0,0 km/h N 3,7 C 10,4 C 0,0 km/h
05.05.2014 22:00 8,3 C 71 % 1018,3 hPa 0,0 l/m 0,0 km/h N 3,4 C 8,3 C 0,0 km/h
05.05.2014 23:00 7,0 C 75 % 1018,5 hPa 0,0 l/m 0,0 km/h N 2,9 C 7,0 C 0,0 km/h
06.05.2014 00:00 6,0 C 78 % 1018,6 hPa 0,0 l/m 0,0 km/h N 2,5 C 6,0 C 0,0 km/h
06.05.2014 01:00 5,2 C 81 % 1018,6 hPa 0,0 l/m 0,1 km/h N 2,2 C 5,2 C 0,8 km/h
06.05.2014 02:00 4,5 C 82 % 1018,3 hPa 0,0 l/m 0,0 km/h N 1,7 C 4,5 C 0,0 km/h
06.05.2014 03:00 4,3 C 84 % 1018,2 hPa 0,0 l/m 0,0 km/h N 1,8 C 4,3 C 0,8 km/h
06.05.2014 04:00 4,2 C 85 % 1018,1 hPa 0,0 l/m 0,3 km/h N 1,8 C 4,2 C 3,6 km/h
06.05.2014 05:00 4,2 C 84 % 1018,2 hPa 0,0 l/m 0,3 km/h N 1,7 C 4,2 C 3,2 km/h
06.05.2014 06:00 4,1 C 85 % 1018,4 hPa 0,0 l/m 0,0 km/h N 1,7 C 4,1 C 0,0 km/h
06.05.2014 07:00 5,4 C 84 % 1018,7 hPa 0,0 l/m 0,1 km/h N 3,0 C 5,4 C 2,0 km/h
06.05.2014 08:00 9,5 C 79 % 1018,8 hPa 0,0 l/m 0,5 km/h N 6,0 C 9,5 C 4,8 km/h
06.05.2014 09:00 13,3 C 66 % 1018,6 hPa 0,0 l/m 1,7 km/h N 7,0 C 13,3 C 8,0 km/h
06.05.2014 10:00 15,4 C 60 % 1018,4 hPa 0,0 l/m 2,2 km/h N 7,6 C 15,4 C 7,6 km/h
06.05.2014 11:00 17,3 C 57 % 1018,0 hPa 0,0 l/m 3,5 km/h N 8,6 C 17,3 C 12,5 km/h
06.05.2014 12:00 19,3 C 53 % 1017,4 hPa 0,0 l/m 4,3 km/h N 9,3 C 19,3 C 15,3 km/h
06.05.2014 13:00 20,7 C 47 % 1016,8 hPa 0,0 l/m 5,2 km/h N 9,0 C 20,6 C 16,5 km/h
06.05.2014 14:00 21,3 C 45 % 1016,2 hPa 0,0 l/m 5,6 km/h N 9,0 C 21,3 C 22,1 km/h
06.05.2014 15:00 20,8 C 46 % 1015,4 hPa 0,0 l/m 6,7 km/h N 8,5 C 20,5 C 18,1 km/h
06.05.2014 16:00 20,6 C 45 % 1014,8 hPa 0,0 l/m 8,3 km/h N 8,2 C 19,9 C 20,1 km/h
06.05.2014 17:00 20,4 C 46 % 1014,4 hPa 0,0 l/m 8,3 km/h N 8,3 C 19,6 C 21,3 km/h
06.05.2014 18:00 19,6 C 48 % 1014,3 hPa 0,0 l/m 6,5 km/h N 8,1 C 19,5 C 18,5 km/h
06.05.2014 19:00 18,4 C 49 % 1014,2 hPa 0,0 l/m 5,5 km/h N 7,5 C 18,4 C 17,7 km/h
06.05.2014 20:00 17,1 C 53 % 1014,4 hPa 0,0 l/m 3,0 km/h N 7,4 C 17,1 C 11,7 km/h
06.05.2014 21:00 15,9 C 59 % 1014,7 hPa 0,0 l/m 0,5 km/h N 7,8 C 15,9 C 6,0 km/h
06.05.2014 22:00 14,8 C 62 % 1014,7 hPa 0,0 l/m 3,2 km/h N 7,6 C 14,8 C 10,9 km/h
06.05.2014 23:00 14,0 C 65 % 1014,2 hPa 0,0 l/m 2,2 km/h N 7,5 C 14,0 C 9,3 km/h
07.05.2014 00:00 12,5 C 69 % 1013,6 hPa 0,0 l/m 0,0 km/h N 7,0 C 12,5 C 0,0 km/h
07.05.2014 01:00 11,0 C 76 % 1013,5 hPa 0,0 l/m 0,0 km/h N 7,0 C 11,0 C 0,0 km/h
07.05.2014 02:00 10,5 C 80 % 1013,1 hPa 0,0 l/m 0,0 km/h N 7,2 C 10,5 C 0,8 km/h
07.05.2014 03:00 10,0 C 82 % 1013,2 hPa 0,0 l/m 0,1 km/h N 7,0 C 10,0 C 0,8 km/h
07.05.2014 04:00 9,3 C 83 % 1013,1 hPa 0,0 l/m 0,0 km/h N 6,5 C 9,3 C 0,0 km/h
07.05.2014 05:00 8,8 C 84 % 1013,2 hPa 0,0 l/m 0,0 km/h N 6,2 C 8,8 C 0,0 km/h
07.05.2014 06:00 8,8 C 84 % 1013,5 hPa 0,0 l/m 0,0 km/h N 6,2 C 8,8 C 0,0 km/h
07.05.2014 07:00 9,9 C 83 % 1013,5 hPa 0,0 l/m 0,3 km/h N 7,2 C 9,9 C 3,2 km/h
07.05.2014 08:00 12,3 C 81 % 1013,3 hPa 0,0 l/m 1,0 km/h N 9,1 C 12,3 C 5,2 km/h
07.05.2014 09:00 14,8 C 73 % 1013,1 hPa 0,0 l/m 0,9 km/h N 10,0 C 14,8 C 5,6 km/h
07.05.2014 10:00 16,5 C 68 % 1013,0 hPa 0,0 l/m 0,9 km/h N 10,5 C 16,5 C 4,8 km/h
07.05.2014 11:00 16,5 C 67 % 1012,7 hPa 0,0 l/m 0,9 km/h N 10,3 C 16,5 C 6,0 km/h
07.05.2014 12:00 16,9 C 68 % 1012,6 hPa 0,0 l/m 0,9 km/h N 10,8 C 16,9 C 5,2 km/h
07.05.2014 13:00 18,6 C 65 % 1012,2 hPa 0,0 l/m 1,3 km/h N 11,9 C 18,6 C 8,9 km/h
07.05.2014 14:00 19,5 C 62 % 1012,1 hPa 0,0 l/m 2,2 km/h N 12,0 C 19,5 C 8,4 km/h
07.05.2014 15:00 19,3 C 63 % 1012,1 hPa 0,0 l/m 2,1 km/h N 12,0 C 19,3 C 8,4 km/h
07.05.2014 16:00 17,3 C 72 % 1012,4 hPa 1,0 l/m 4,1 km/h N 12,1 C 17,1 C 14,1 km/h
07.05.2014 17:00 14,7 C 81 % 1012,8 hPa 0,5 l/m 5,4 km/h N 11,4 C 14,5 C 22,1 km/h
07.05.2014 18:00 13,4 C 82 % 1013,2 hPa 1,3 l/m 6,8 km/h N 10,4 C 13,1 C 22,9 km/h
07.05.2014 19:00 12,9 C 83 % 1013,9 hPa 0,8 l/m 3,6 km/h N 10,1 C 12,9 C 16,1 km/h
07.05.2014 20:00 12,7 C 83 % 1013,8 hPa 0,0 l/m 3,2 km/h N 9,9 C 12,7 C 13,3 km/h
07.05.2014 21:00 13,0 C 79 % 1013,5 hPa 0,0 l/m 7,2 km/h N 9,4 C 12,4 C 25,0 km/h
07.05.2014 22:00 13,3 C 76 % 1013,4 hPa 0,0 l/m 11,5 km/h N 9,1 C 10,6 C 29,8 km/h
07.05.2014 23:00 13,4 C 74 % 1014,0 hPa 0,0 l/m 9,5 km/h N 8,9 C 11,6 C 25,8 km/h
08.05.2014 00:00 13,4 C 74 % 1014,1 hPa 0,0 l/m 8,7 km/h N 8,8 C 12,0 C 24,5 km/h
08.05.2014 01:00 13,1 C 73 % 1014,3 hPa 0,0 l/m 8,2 km/h N 8,5 C 12,1 C 24,9 km/h
08.05.2014 02:00 13,0 C 74 % 1014,5 hPa 0,0 l/m 7,5 km/h N 8,5 C 12,2 C 24,5 km/h
08.05.2014 03:00 13,3 C 74 % 1014,5 hPa 0,0 l/m 8,0 km/h N 8,7 C 12,3 C 26,2 km/h
08.05.2014 04:00 13,0 C 74 % 1014,8 hPa 0,0 l/m 7,9 km/h N 8,5 C 12,1 C 22,1 km/h
08.05.2014 05:00 12,4 C 75 % 1015,3 hPa 0,0 l/m 7,4 km/h N 8,1 C 11,7 C 22,1 km/h
08.05.2014 06:00 12,5 C 75 % 1016,1 hPa 0,0 l/m 7,7 km/h N 8,1 C 11,7 C 20,5 km/h
08.05.2014 07:00 13,5 C 70 % 1016,7 hPa 0,0 l/m 9,5 km/h N 8,1 C 11,8 C 27,8 km/h
08.05.2014 08:00 14,9 C 65 % 1017,0 hPa 0,0 l/m 9,4 km/h N 8,2 C 13,2 C 24,9 km/h
08.05.2014 09:00 15,6 C 63 % 1017,0 hPa 0,0 l/m 12,2 km/h N 8,5 C 12,9 C 31,0 km/h
08.05.2014 10:00 16,7 C 61 % 1016,9 hPa 0,0 l/m 10,1 km/h N 9,0 C 15,0 C 29,0 km/h
08.05.2014 11:00 17,5 C 58 % 1016,9 hPa 0,0 l/m 13,8 km/h N 9,0 C 14,5 C 34,6 km/h
08.05.2014 12:00 18,5 C 56 % 1016,9 hPa 0,0 l/m 9,3 km/h N 9,6 C 17,2 C 30,2 km/h
08.05.2014 13:00 18,5 C 52 % 1016,9 hPa 0,0 l/m 12,6 km/h N 8,5 C 16,2 C 35,0 km/h
08.05.2014 14:00 19,3 C 48 % 1016,5 hPa 0,0 l/m 9,7 km/h N 8,1 C 18,1 C 29,0 km/h
08.05.2014 15:00 19,3 C 46 % 1016,2 hPa 0,3 l/m 9,7 km/h N 7,3 C 18,0 C 27,8 km/h
08.05.2014 16:00 19,6 C 46 % 1015,9 hPa 0,0 l/m 5,7 km/h N 7,7 C 19,5 C 20,5 km/h
08.05.2014 17:00 19,9 C 46 % 1015,6 hPa 0,0 l/m 5,8 km/h N 7,9 C 19,9 C 18,5 km/h
08.05.2014 18:00 19,4 C 47 % 1015,5 hPa 0,0 l/m 6,1 km/h N 7,7 C 19,1 C 19,3 km/h
08.05.2014 19:00 19,5 C 47 % 1015,1 hPa 0,0 l/m 1,4 km/h N 8,0 C 19,5 C 8,1 km/h
08.05.2014 20:00 17,4 C 54 % 1015,3 hPa 0,0 l/m 0,0 km/h N 7,8 C 17,4 C 0,0 km/h
08.05.2014 21:00 13,9 C 65 % 1015,5 hPa 0,0 l/m 0,0 km/h N 7,4 C 13,9 C 1,2 km/h
08.05.2014 22:00 12,2 C 71 % 1015,5 hPa 0,0 l/m 0,0 km/h N 7,1 C 12,2 C 0,0 km/h
08.05.2014 23:00 10,6 C 77 % 1015,3 hPa 0,0 l/m 0,0 km/h N 6,8 C 10,6 C 0,0 km/h
09.05.2014 00:00 9,6 C 81 % 1014,9 hPa 0,0 l/m 0,0 km/h N 6,4 C 9,6 C 0,0 km/h
09.05.2014 01:00 9,9 C 84 % 1014,2 hPa 0,0 l/m 0,4 km/h N 7,3 C 9,9 C 3,2 km/h
09.05.2014 02:00 10,5 C 82 % 1013,9 hPa 0,0 l/m 0,1 km/h N 7,5 C 10,5 C 2,0 km/h
09.05.2014 03:00 9,4 C 82 % 1013,7 hPa 0,0 l/m 0,2 km/h N 6,5 C 9,4 C 2,0 km/h
09.05.2014 04:00 8,7 C 84 % 1013,5 hPa 0,0 l/m 0,0 km/h N 6,1 C 8,7 C 0,4 km/h
09.05.2014 05:00 9,1 C 84 % 1013,6 hPa 0,0 l/m 0,0 km/h N 6,5 C 9,1 C 0,0 km/h
09.05.2014 06:00 11,0 C 81 % 1014,5 hPa 0,0 l/m 2,5 km/h N 7,9 C 10,7 C 10,1 km/h
09.05.2014 07:00 14,6 C 76 % 1015,0 hPa 1,6 l/m 4,1 km/h N 10,4 C 14,6 C 18,9 km/h
09.05.2014 08:00 14,2 C 81 % 1015,6 hPa 0,0 l/m 2,3 km/h N 11,0 C 14,2 C 12,1 km/h
09.05.2014 09:00 15,7 C 79 % 1015,8 hPa 0,0 l/m 1,1 km/h N 12,0 C 15,7 C 7,7 km/h
09.05.2014 10:00 18,2 C 69 % 1015,9 hPa 0,0 l/m 5,2 km/h N 12,4 C 17,9 C 24,1 km/h
09.05.2014 11:00 18,5 C 66 % 1016,1 hPa 0,0 l/m 5,9 km/h N 11,9 C 18,3 C 19,7 km/h
09.05.2014 12:00 19,3 C 64 % 1016,1 hPa 0,0 l/m 6,9 km/h N 12,2 C 18,7 C 22,1 km/h
09.05.2014 13:00 19,3 C 64 % 1016,0 hPa 0,0 l/m 8,9 km/h N 12,3 C 18,2 C 21,7 km/h
09.05.2014 14:00 21,1 C 60 % 1015,3 hPa 0,0 l/m 4,3 km/h N 12,9 C 21,1 C 21,3 km/h
09.05.2014 15:00 21,1 C 56 % 1015,1 hPa 0,0 l/m 4,9 km/h N 11,8 C 21,1 C 18,9 km/h
09.05.2014 16:00 21,0 C 57 % 1014,6 hPa 0,0 l/m 2,4 km/h N 12,1 C 21,0 C 16,1 km/h
09.05.2014 17:00 20,8 C 57 % 1014,2 hPa 0,0 l/m 1,9 km/h N 11,9 C 20,8 C 9,3 km/h
09.05.2014 18:00 21,6 C 54 % 1013,5 hPa 0,0 l/m 0,7 km/h N 12,0 C 21,6 C 6,8 km/h
09.05.2014 19:00 20,7 C 57 % 1013,6 hPa 0,0 l/m 0,2 km/h N 11,9 C 20,7 C 2,8 km/h
09.05.2014 20:00 18,6 C 63 % 1013,8 hPa 0,0 l/m 0,0 km/h N 11,4 C 18,6 C 0,0 km/h
09.05.2014 21:00 16,0 C 72 % 1014,1 hPa 0,0 l/m 0,0 km/h N 10,8 C 16,0 C 0,0 km/h
09.05.2014 22:00 15,1 C 78 % 1014,4 hPa 0,0 l/m 0,7 km/h N 11,3 C 15,1 C 4,0 km/h
09.05.2014 23:00 15,0 C 81 % 1014,3 hPa 0,0 l/m 0,7 km/h N 11,6 C 15,0 C 5,6 km/h
10.05.2014 00:00 14,8 C 81 % 1014,2 hPa 0,0 l/m 0,6 km/h N 11,5 C 14,8 C 4,8 km/h
10.05.2014 01:00 14,7 C 80 % 1014,1 hPa 0,0 l/m 0,2 km/h N 11,3 C 14,7 C 4,0 km/h
10.05.2014 02:00 14,3 C 81 % 1014,0 hPa 0,0 l/m 0,3 km/h N 11,0 C 14,3 C 3,2 km/h
10.05.2014 03:00 14,7 C 77 % 1014,5 hPa 0,0 l/m 4,5 km/h N 10,6 C 14,0 C 16,9 km/h
10.05.2014 04:00 15,2 C 74 % 1015,0 hPa 0,0 l/m 4,5 km/h N 10,6 C 14,7 C 17,3 km/h
10.05.2014 05:00 14,2 C 81 % 1015,8 hPa 1,0 l/m 3,1 km/h N 10,9 C 14,2 C 14,9 km/h
10.05.2014 06:00 13,2 C 82 % 1016,6 hPa 0,0 l/m 0,7 km/h N 10,1 C 13,2 C 5,2 km/h
10.05.2014 07:00 13,8 C 78 % 1016,9 hPa 0,0 l/m 4,6 km/h N 10,0 C 13,8 C 18,1 km/h
10.05.2014 08:00 15,1 C 71 % 1016,9 hPa 0,0 l/m 5,1 km/h N 10,0 C 15,1 C 19,7 km/h
10.05.2014 09:00 16,5 C 61 % 1016,9 hPa 0,0 l/m 7,5 km/h N 8,9 C 15,8 C 24,1 km/h
10.05.2014 10:00 17,2 C 58 % 1016,7 hPa 0,0 l/m 6,0 km/h N 8,8 C 16,8 C 22,1 km/h
10.05.2014 11:00 17,7 C 57 % 1016,3 hPa 0,0 l/m 7,3 km/h N 9,0 C 17,1 C 22,5 km/h
10.05.2014 12:00 18,7 C 56 % 1015,8 hPa 0,0 l/m 6,6 km/h N 9,7 C 18,4 C 22,9 km/h
10.05.2014 13:00 19,6 C 52 % 1015,0 hPa 0,0 l/m 7,4 km/h N 9,3 C 19,2 C 24,1 km/h
10.05.2014 14:00 20,6 C 49 % 1014,1 hPa 0,0 l/m 8,7 km/h N 9,4 C 19,8 C 26,1 km/h
10.05.2014 15:00 20,6 C 47 % 1013,1 hPa 0,0 l/m 9,6 km/h N 8,7 C 19,4 C 29,8 km/h
10.05.2014 16:00 20,8 C 47 % 1012,1 hPa 0,0 l/m 8,8 km/h N 9,1 C 19,9 C 25,7 km/h
10.05.2014 17:00 20,1 C 50 % 1011,4 hPa 0,0 l/m 7,1 km/h N 9,3 C 19,7 C 22,5 km/h
10.05.2014 18:00 20,2 C 53 % 1011,0 hPa 0,0 l/m 2,5 km/h N 10,3 C 20,2 C 9,2 km/h
10.05.2014 19:00 19,6 C 56 % 1010,5 hPa 0,0 l/m 2,1 km/h N 10,6 C 19,6 C 10,5 km/h
10.05.2014 20:00 18,7 C 59 % 1010,2 hPa 0,0 l/m 1,8 km/h N 10,5 C 18,7 C 8,0 km/h
10.05.2014 21:00 17,1 C 66 % 1009,9 hPa 0,0 l/m 0,2 km/h N 10,6 C 17,1 C 2,4 km/h
10.05.2014 22:00 16,0 C 71 % 1009,8 hPa 0,0 l/m 0,5 km/h N 10,7 C 16,0 C 3,6 km/h
10.05.2014 23:00 15,3 C 75 % 1009,5 hPa 0,0 l/m 0,1 km/h N 10,9 C 15,3 C 2,0 km/h
11.05.2014 00:00 14,9 C 79 % 1009,5 hPa 0,0 l/m 0,5 km/h N 11,3 C 14,9 C 4,4 km/h
11.05.2014 01:00 15,4 C 78 % 1009,3 hPa 0,0 l/m 0,5 km/h N 11,6 C 15,4 C 4,0 km/h
11.05.2014 02:00 15,1 C 79 % 1009,0 hPa 0,3 l/m 1,3 km/h N 11,6 C 15,1 C 5,6 km/h
11.05.2014 03:00 14,8 C 82 % 1008,0 hPa 0,3 l/m 1,9 km/h N 11,8 C 14,8 C 9,3 km/h
11.05.2014 04:00 14,8 C 83 % 1007,4 hPa 0,3 l/m 1,2 km/h N 11,9 C 14,8 C 6,4 km/h
11.05.2014 05:00 14,5 C 83 % 1007,3 hPa 0,0 l/m 1,2 km/h N 11,7 C 14,5 C 7,2 km/h
11.05.2014 06:00 14,1 C 83 % 1007,7 hPa 0,0 l/m 0,2 km/h N 11,3 C 14,1 C 2,0 km/h
11.05.2014 07:00 14,8 C 83 % 1008,1 hPa 0,0 l/m 0,2 km/h N 12,0 C 14,8 C 2,0 km/h
11.05.2014 08:00 15,8 C 81 % 1008,4 hPa 0,0 l/m 0,6 km/h N 12,6 C 15,8 C 4,4 km/h
11.05.2014 09:00 17,5 C 67 % 1008,4 hPa 0,0 l/m 5,3 km/h N 11,3 C 17,4 C 17,7 km/h
11.05.2014 10:00 16,4 C 74 % 1009,1 hPa 1,0 l/m 3,7 km/h N 11,7 C 16,4 C 15,3 km/h
11.05.2014 11:00 15,0 C 81 % 1009,2 hPa 0,8 l/m 1,0 km/h N 11,8 C 15,0 C 6,8 km/h
11.05.2014 12:00 13,8 C 83 % 1009,5 hPa 2,3 l/m 3,1 km/h N 10,9 C 13,8 C 13,7 km/h
11.05.2014 13:00 12,8 C 84 % 1010,0 hPa 3,1 l/m 1,2 km/h N 10,2 C 12,8 C 8,4 km/h
11.05.2014 14:00 11,8 C 84 % 1009,5 hPa 1,3 l/m 2,3 km/h N 9,1 C 11,8 C 13,7 km/h
11.05.2014 15:00 10,9 C 84 % 1009,0 hPa 2,3 l/m 3,2 km/h N 8,3 C 10,9 C 14,5 km/h
11.05.2014 16:00 10,2 C 84 % 1009,5 hPa 6,0 l/m 1,8 km/h N 7,6 C 10,2 C 11,7 km/h
11.05.2014 17:00 10,1 C 83 % 1009,2 hPa 2,1 l/m 0,7 km/h N 7,2 C 10,1 C 4,8 km/h
11.05.2014 18:00 9,7 C 82 % 1009,5 hPa 1,0 l/m 0,8 km/h N 6,8 C 9,7 C 7,3 km/h
11.05.2014 19:00 9,5 C 82 % 1009,4 hPa 2,3 l/m 1,0 km/h N 6,6 C 9,5 C 7,2 km/h
11.05.2014 20:00 8,9 C 82 % 1008,4 hPa 0,0 l/m 0,3 km/h N 6,0 C 8,9 C 3,2 km/h
11.05.2014 21:00 8,8 C 82 % 1008,1 hPa 0,0 l/m 0,5 km/h N 5,9 C 8,8 C 4,0 km/h
11.05.2014 22:00 8,7 C 82 % 1008,0 hPa 0,0 l/m 0,0 km/h N 5,7 C 8,7 C 0,4 km/h
11.05.2014 23:00 8,4 C 81 % 1008,5 hPa 0,0 l/m 0,1 km/h N 5,4 C 8,4 C 1,6 km/h
Min-Datum _ 06.05.14 05.05.14 11.05.14 - 05.05.14 - 05.05.14 06.05.14 05.05.14
_ Min-Zeit 06:30 16:00 05:45 - 20:00 - 05:15 06:30 20:15
Minimum _ 3,9 C 43 % 1007,2 hPa - 0,0 km/h - 0,5 C 3,9 C 0,0 km/h
Max-Datum _ 09.05.14 06.05.14 05.05.14 11.05.14 08.05.14 - 09.05.14 09.05.14 08.05.14
_ Max-Zeit 18:15 04:30 08:15 16:45 11:30 - 14:15 18:30 11:15
Maximum _ 21,8 C 85 % 1020,9 hPa 6,0 l/m 15,2 km/h
N
- 13,5 C 21,8 C 40,2 km/h
N
Durchschnitt _ 14,0 C 68 % 1014,5 hPa #29,6 l/m 3,3 km/h N 8,0 C 13,8 C 11,7 km/h